Lebanon, OR (97355)

5:38 AM PDT on August 31, 2015 (GMT -0700)
Near Downtown - Grant | | Change Station
CLOSE
Current Station
Personal Weather Station
Location: Lebanon, OR
Elevation: 354 ft
Nearby Weather Stations

Elev 354 ft 44.54 °N, 122.90 °W | Updated 4 seconds ago

Mostly Cloudy
Mostly Cloudy
55.0 °F
Feels Like 55.0 °F
N
2.2
Wind Variable Wind from SE
Gusts 3.1 mph

Today
High -- | Low -- °F
--% Chance of Precip.
Yesterday
High -- | Low -- °F
Precip. -- in
6:32 AM 7:50 PM
Waning Gibbous, 95% visible
Pressure 30.09 in
Visibility 10.0 miles
Clouds Overcast 8000 ft
Dew Point 55 °F
Humidity 99%
Rainfall 0.00 in
Snow Depth Not available.
UV 0 out of 12
Pollen 3.30 out of 12
Air Quality Not available.
Flu Activity Not available.
METAR KCVO 311215Z 17005KT 10SM OVC080 11/11 A3009 RMK AO1
Pressure 30.09 in
Visibility 10.0 miles
Clouds Overcast 8000 ft
Dew Point 55 °F
Humidity 99%
Rainfall 0.00 in
Snow Depth Not available.
UV 0 out of 12
Pollen 3.30 out of 12
Air Quality Not available.
Flu Activity Not available.
METAR KCVO 311215Z 17005KT 10SM OVC080 11/11 A3009 RMK AO1

10-Day Weather Forecast

×

Almanac

Astronomy

Aug. 31, 2015 Rise Set
Actual Time
Civil Twilight
Nautical Twilight
Astronomical Twilight
Moon
Length of Visible Light
Length of Day
Tomorrow will be .
, % of the Moon is Illuminated

Today's Extremes

State Highs State Lows

Community

WunderPhotos

Upload Photos

1,851,222 photos uploaded!

WunderBlogs® & News

Nearby

Air Quality

  Air Quality AQ Index Pollutant
Not available.

Snow Depth

Station Depth Elevation

Earthquake Activity

City Distance Mag. Time & Date
Minimum magnitude displayed is 2.5.

Coastal Water Temperatures

Place Temperature

Stations

Nearby Weather Stations

Station Location Temp. Windchill Dew Point Humidity Wind Precip. Elev Updated Type